Time;durP1;ratioP1;P1;durP2;ratioP2;P2;SDS_P1;SDS_P2;PMS_P1;PMS_P2;Temp;Humidity;BMP_temperature;BMP_pressure;BME280_temperature;BME280_humidity;BME280_pressure;Samples;Min_cycle;Max_cycle;Signal;HPM_P1;HPM_P2
2021/03/27 00:01:01;;;;;;;3.60;2.70;;;9.70;86.70;;;;;;5017436;28;20032;-83
2021/03/27 00:03:43;;;;;;;3.97;2.63;;;9.60;87.40;;;;;;5022275;28;20052;-83
2021/03/27 00:06:17;;;;;;;5.47;2.30;;;9.50;87.40;;;;;;5017239;28;20545;-84
2021/03/27 00:08:50;;;;;;;3.70;2.00;;;9.50;87.40;;;;;;5035199;28;20022;-83
2021/03/27 00:11:37;;;;;;;2.67;1.98;;;9.40;87.50;;;;;;5017549;28;20026;-84
2021/03/27 00:14:32;;;;;;;3.97;1.80;;;9.30;87.70;;;;;;5049786;28;20051;-83
2021/03/27 00:17:08;;;;;;;3.42;1.50;;;9.30;87.80;;;;;;5053497;28;20120;-83
2021/03/27 00:19:48;;;;;;;2.53;1.10;;;9.30;88.10;;;;;;5053233;28;20013;-89
2021/03/27 00:22:24;;;;;;;2.45;0.93;;;9.20;88.30;;;;;;5054837;28;20071;-83
2021/03/27 00:25:15;;;;;;;1.80;0.85;;;9.10;88.20;;;;;;5053253;28;20120;-83
2021/03/27 00:27:40;;;;;;;2.25;0.65;;;9.10;88.40;;;;;;5050742;28;20127;-83
2021/03/27 00:30:12;;;;;;;2.67;0.68;;;9.20;88.40;;;;;;5025098;28;20155;-82
2021/03/27 00:32:44;;;;;;;0.93;0.50;;;9.10;88.50;;;;;;5036442;28;20071;-84
2021/03/27 00:35:32;;;;;;;2.55;0.47;;;9.20;88.60;;;;;;5053120;28;20037;-82
2021/03/27 00:38:01;;;;;;;0.80;0.60;;;9.10;88.10;;;;;;5033192;28;20010;-83
2021/03/27 00:40:35;;;;;;;1.55;0.73;;;9.10;88.20;;;;;;5043794;28;20064;-83
2021/03/27 00:43:18;;;;;;;1.65;0.95;;;9.10;88.20;;;;;;5052950;28;20086;-83
2021/03/27 00:45:48;;;;;;;2.88;0.70;;;9.00;88.50;;;;;;5038050;28;20037;-83
2021/03/27 00:48:21;;;;;;;2.65;0.57;;;9.00;88.60;;;;;;5016518;28;20017;-84
2021/03/27 00:50:57;;;;;;;2.40;0.70;;;8.80;89.10;;;;;;5002780;28;20068;-84
2021/03/27 00:53:33;;;;;;;1.60;0.50;;;8.70;89.60;;;;;;5024758;28;20060;-83
2021/03/27 00:56:12;;;;;;;1.45;0.70;;;8.70;89.90;;;;;;5016204;28;20545;-83
2021/03/27 00:59:01;;;;;;;2.22;1.00;;;8.70;90.00;;;;;;5033825;28;20100;-88
2021/03/27 01:01:32;;;;;;;2.45;1.23;;;8.60;90.30;;;;;;5033059;28;20060;-84
2021/03/27 01:04:02;;;;;;;3.90;1.27;;;8.50;90.60;;;;;;5032514;28;20152;-83
2021/03/27 01:06:43;;;;;;;3.13;2.00;;;8.50;90.70;;;;;;5005082;28;20104;-83
2021/03/27 01:09:11;;;;;;;5.95;2.25;;;8.50;91.10;;;;;;5032597;28;20048;-86
2021/03/27 01:11:42;;;;;;;3.83;2.08;;;8.30;91.40;;;;;;5052447;28;20025;-85
2021/03/27 01:14:14;;;;;;;3.88;2.40;;;8.30;91.30;;;;;;5052436;28;20028;-83
2021/03/27 01:16:51;;;;;;;7.10;3.38;;;8.30;91.50;;;;;;5018218;28;20032;-90
2021/03/27 01:19:37;;;;;;;5.45;3.40;;;8.30;91.70;;;;;;5032196;28;20037;-83
2021/03/27 01:22:06;;;;;;;6.65;3.67;;;8.30;91.80;;;;;;5041287;28;20024;-84
2021/03/27 01:24:33;;;;;;;6.88;3.67;;;8.20;92.00;;;;;;5021333;28;20104;-84
2021/03/27 01:27:03;;;;;;;8.13;4.55;;;8.10;92.20;;;;;;5052227;28;20027;-83
2021/03/27 01:29:36;;;;;;;7.55;5.00;;;8.10;92.40;;;;;;5052952;28;20037;-83
2021/03/27 01:32:11;;;;;;;7.25;4.63;;;8.00;92.60;;;;;;5026505;28;20080;-83
2021/03/27 01:34:48;;;;;;;9.95;5.50;;;8.00;92.60;;;;;;5052578;28;20086;-85
2021/03/27 01:37:30;;;;;;;9.32;5.57;;;7.90;92.90;;;;;;5052273;28;20476;-83
2021/03/27 01:40:08;;;;;;;10.00;4.38;;;7.90;92.90;;;;;;5051580;28;20029;-83
2021/03/27 01:42:57;;;;;;;9.77;5.45;;;8.00;92.90;;;;;;5053512;28;20439;-83
2021/03/27 01:46:11;;;;;;;8.35;5.43;;;8.00;93.00;;;;;;5033934;28;20025;-84
2021/03/27 01:48:39;;;;;;;9.23;6.68;;;7.90;93.20;;;;;;4937259;29;20039;-83
2021/03/27 01:51:28;;;;;;;14.25;7.93;;;7.80;93.20;;;;;;4952533;28;20023;-84
2021/03/27 01:54:02;;;;;;;13.60;8.35;;;7.70;93.30;;;;;;5004356;28;20042;-83
2021/03/27 01:56:42;;;;;;;18.52;9.63;;;7.70;93.30;;;;;;5001738;28;20057;-83
2021/03/27 01:59:21;;;;;;;13.90;9.20;;;7.60;93.40;;;;;;5015494;28;20479;-83
2021/03/27 02:01:58;;;;;;;14.82;8.82;;;7.60;93.40;;;;;;5030732;28;20280;-83
2021/03/27 02:04:30;;;;;;;14.50;9.93;;;7.60;93.50;;;;;;5017780;28;20037;-84
2021/03/27 02:07:04;;;;;;;14.38;9.45;;;7.50;93.60;;;;;;5030674;28;20060;-83
2021/03/27 02:09:32;;;;;;;18.15;10.57;;;7.50;93.70;;;;;;5031576;28;20065;-84
2021/03/27 02:12:04;;;;;;;13.93;8.52;;;7.50;93.70;;;;;;5032480;28;20484;-83
2021/03/27 02:14:45;;;;;;;15.95;9.20;;;7.50;93.80;;;;;;5031512;28;20037;-83
2021/03/27 02:17:29;;;;;;;15.93;9.20;;;7.50;93.70;;;;;;5031366;28;20088;-83
2021/03/27 02:20:16;;;;;;;16.13;9.88;;;7.60;93.50;;;;;;5015375;28;20084;-84
2021/03/27 02:23:00;;;;;;;15.25;8.52;;;7.50;93.50;;;;;;5002439;28;20030;-83
2021/03/27 02:25:58;;;;;;;13.60;8.68;;;7.40;93.60;;;;;;5015249;28;20171;-83
2021/03/27 02:28:39;;;;;;;16.90;9.05;;;7.40;93.50;;;;;;5033034;28;20029;-83
2021/03/27 02:31:34;;;;;;;15.63;8.63;;;7.40;93.60;;;;;;5031604;28;20100;-82
2021/03/27 02:34:20;;;;;;;15.27;8.68;;;7.40;93.40;;;;;;5020682;28;20486;-83
2021/03/27 02:37:11;;;;;;;16.27;8.35;;;7.40;93.40;;;;;;5014335;28;20034;-84
2021/03/27 02:39:44;;;;;;;16.95;9.02;;;7.40;93.40;;;;;;5032098;28;20025;-83
2021/03/27 02:42:25;;;;;;;15.40;8.65;;;7.50;93.50;;;;;;5033403;28;20038;-83
2021/03/27 02:44:57;;;;;;;12.90;7.68;;;7.50;93.40;;;;;;5026827;28;20087;-84
2021/03/27 02:47:45;;;;;;;16.88;7.88;;;7.50;93.30;;;;;;5029536;28;20100;-83
2021/03/27 02:50:22;;;;;;;9.63;6.60;;;7.50;93.20;;;;;;5060907;28;20009;-86
2021/03/27 02:53:17;;;;;;;15.55;8.23;;;7.60;93.10;;;;;;5039902;28;20040;-90
2021/03/27 02:56:21;;;;;;;16.15;7.88;;;7.60;93.10;;;;;;5030946;28;20033;-83
2021/03/27 02:58:49;;;;;;;12.18;7.88;;;7.60;93.10;;;;;;5024773;28;20030;-83
2021/03/27 03:01:36;;;;;;;17.00;8.63;;;7.60;93.00;;;;;;5030776;28;20043;-87
2021/03/27 03:04:26;;;;;;;14.45;7.75;;;7.60;93.00;;;;;;5041886;28;20070;-83
2021/03/27 03:07:03;;;;;;;12.38;7.63;;;7.50;93.10;;;;;;5002579;28;20116;-83
2021/03/27 03:09:46;;;;;;;16.70;7.57;;;7.50;93.00;;;;;;5030412;28;20029;-82
2021/03/27 03:12:37;;;;;;;11.90;7.10;;;7.40;93.20;;;;;;5030844;28;20742;-83
2021/03/27 03:15:23;;;;;;;13.60;7.30;;;7.40;93.30;;;;;;5028153;28;20437;-83
2021/03/27 03:18:15;;;;;;;11.77;6.63;;;7.30;93.40;;;;;;5014826;28;20109;-83
2021/03/27 03:20:56;;;;;;;14.43;6.72;;;7.30;93.30;;;;;;5004057;28;20033;-84
2021/03/27 03:23:32;;;;;;;13.70;5.82;;;7.40;93.20;;;;;;5032073;28;20030;-83
2021/03/27 03:26:30;;;;;;;17.27;7.38;;;7.40;93.10;;;;;;5022709;28;20075;-83
2021/03/27 03:29:12;;;;;;;15.63;7.63;;;7.30;93.30;;;;;;5001588;28;20037;-83
2021/03/27 03:31:53;;;;;;;15.27;7.18;;;7.30;93.50;;;;;;5030577;28;20040;-83
2021/03/27 03:34:54;;;;;;;19.98;8.57;;;7.20;93.70;;;;;;5031288;28;20037;-83
2021/03/27 03:37:32;;;;;;;14.48;7.55;;;7.20;93.80;;;;;;5043836;28;20029;-84
2021/03/27 03:40:22;;;;;;;18.73;8.50;;;7.20;93.80;;;;;;5012959;28;20116;-83
2021/03/27 03:42:59;;;;;;;19.95;9.15;;;7.30;93.80;;;;;;5013097;28;20026;-83
2021/03/27 03:46:02;;;;;;;20.88;8.48;;;7.30;93.80;;;;;;5034190;28;20029;-83
2021/03/27 03:49:02;;;;;;;18.02;9.13;;;7.30;93.80;;;;;;5035769;28;20029;-84
2021/03/27 03:51:32;;;;;;;18.10;9.02;;;7.20;93.90;;;;;;5017763;28;20033;-83
2021/03/27 03:54:12;;;;;;;24.73;9.82;;;7.20;93.90;;;;;;5033776;28;20026;-83
2021/03/27 03:57:23;;;;;;;18.80;9.57;;;7.20;93.90;;;;;;5017871;28;20033;-84
2021/03/27 03:59:55;;;;;;;19.13;8.95;;;7.10;94.00;;;;;;4981029;28;20033;-83
2021/03/27 04:02:34;;;;;;;17.90;8.77;;;7.20;94.00;;;;;;5033815;28;20026;-82
2021/03/27 04:05:10;;;;;;;18.30;8.07;;;7.20;94.00;;;;;;5017106;28;20025;-84
2021/03/27 04:07:42;;;;;;;21.30;9.00;;;7.20;93.90;;;;;;5017005;28;20063;-83
2021/03/27 04:10:19;;;;;;;18.42;9.30;;;7.30;93.80;;;;;;5033694;28;20481;-83
2021/03/27 04:12:56;;;;;;;19.33;9.70;;;7.30;93.80;;;;;;5017154;28;20076;-83
2021/03/27 04:15:34;;;;;;;20.92;9.93;;;7.20;93.80;;;;;;5017511;28;20108;-83
2021/03/27 04:18:24;;;;;;;17.42;8.57;;;7.20;93.80;;;;;;5033481;28;20017;-83
2021/03/27 04:20:58;;;;;;;15.82;8.23;;;7.20;93.90;;;;;;5034903;28;20021;-83
2021/03/27 04:23:33;;;;;;;27.30;8.63;;;7.20;93.90;;;;;;5017169;28;20028;-83
2021/03/27 04:26:17;;;;;;;12.75;6.88;;;7.10;94.00;;;;;;5017265;28;20033;-83
2021/03/27 04:29:17;;;;;;;16.92;8.32;;;7.20;93.90;;;;;;5017070;28;20021;-83
2021/03/27 04:32:07;;;;;;;16.25;7.63;;;7.10;93.70;;;;;;5016939;28;20112;-83
2021/03/27 04:34:36;;;;;;;17.67;7.22;;;7.10;93.90;;;;;;5016580;28;20482;-86
2021/03/27 04:37:10;;;;;;;13.38;7.53;;;7.00;94.00;;;;;;5016169;28;20032;-83
2021/03/27 04:39:57;;;;;;;17.38;6.80;;;7.00;94.00;;;;;;5033329;28;20037;-84
2021/03/27 04:42:40;;;;;;;15.75;6.50;;;7.10;94.00;;;;;;5033309;28;20025;-83
2021/03/27 04:45:32;;;;;;;18.48;6.82;;;7.10;93.90;;;;;;5036311;28;20029;-84
2021/03/27 04:48:28;;;;;;;18.40;6.38;;;7.10;94.00;;;;;;5040885;28;20039;-83
2021/03/27 04:51:28;;;;;;;14.45;5.88;;;7.10;93.80;;;;;;5033595;28;20385;-83
2021/03/27 04:54:05;;;;;;;15.95;6.32;;;7.10;93.70;;;;;;5016385;28;20025;-84
2021/03/27 04:56:45;;;;;;;15.25;6.10;;;7.10;93.70;;;;;;5015873;28;20030;-84
2021/03/27 04:59:48;;;;;;;15.60;6.05;;;7.00;93.80;;;;;;5033172;28;20017;-83
2021/03/27 05:02:40;;;;;;;12.38;5.40;;;7.10;93.60;;;;;;5015324;28;20029;-87
2021/03/27 05:05:37;;;;;;;16.35;6.78;;;7.10;93.60;;;;;;5016110;28;20060;-83
2021/03/27 05:08:19;;;;;;;13.70;4.97;;;7.20;93.50;;;;;;5001921;28;20359;-84
2021/03/27 05:10:48;;;;;;;16.45;4.88;;;7.20;93.40;;;;;;5016377;28;20121;-84
2021/03/27 05:13:34;;;;;;;11.13;4.40;;;7.20;93.50;;;;;;5016289;28;20032;-84
2021/03/27 05:16:10;;;;;;;21.15;5.03;;;7.20;93.50;;;;;;5016180;28;20416;-82
2021/03/27 05:18:46;;;;;;;12.38;4.05;;;7.20;93.30;;;;;;5016276;28;20381;-84
2021/03/27 05:21:39;;;;;;;18.23;4.93;;;7.20;93.30;;;;;;5032224;28;20021;-83
2021/03/27 05:24:16;;;;;;;11.15;3.75;;;7.30;93.30;;;;;;5016152;28;20030;-83
2021/03/27 05:27:04;;;;;;;9.82;3.20;;;7.20;93.30;;;;;;5032097;28;20018;-83
2021/03/27 05:29:39;;;;;;;10.25;3.33;;;7.10;93.60;;;;;;5018939;28;20063;-83
2021/03/27 05:32:38;;;;;;;6.00;2.30;;;7.10;93.70;;;;;;5052032;28;20492;-84
2021/03/27 05:35:13;;;;;;;9.05;2.83;;;7.20;94.00;;;;;;5037531;28;20086;-84
2021/03/27 05:38:02;;;;;;;10.07;2.92;;;7.20;93.90;;;;;;5040219;28;20069;-84
2021/03/27 05:40:55;;;;;;;8.32;2.10;;;7.20;93.90;;;;;;5010201;28;20028;-83
2021/03/27 05:43:59;;;;;;;7.28;2.30;;;7.20;93.80;;;;;;5051280;28;20502;-83
2021/03/27 05:46:27;;;;;;;8.18;2.75;;;7.20;93.70;;;;;;5053293;28;20082;-84
2021/03/27 05:49:24;;;;;;;7.47;2.30;;;7.20;93.80;;;;;;5053405;28;20040;-83
2021/03/27 05:52:19;;;;;;;5.63;2.25;;;7.20;93.70;;;;;;5051810;28;20120;-83
2021/03/27 05:54:44;;;;;;;5.85;2.08;;;7.20;93.70;;;;;;5020558;28;20443;-84
2021/03/27 05:57:31;;;;;;;14.25;2.80;;;7.20;93.70;;;;;;5015068;28;20037;-83
2021/03/27 06:00:21;;;;;;;10.43;3.50;;;7.20;93.70;;;;;;5031565;28;20116;-83
2021/03/27 06:03:21;;;;;;;9.73;2.75;;;7.20;93.70;;;;;;5015390;28;20021;-83
2021/03/27 06:06:23;;;;;;;8.07;2.65;;;7.20;93.70;;;;;;5033072;28;20478;-83
2021/03/27 06:09:17;;;;;;;10.93;2.33;;;7.20;93.60;;;;;;5032116;28;20060;-86
2021/03/27 06:12:15;;;;;;;11.38;3.55;;;7.30;93.60;;;;;;5015267;28;20048;-83
2021/03/27 06:15:09;;;;;;;10.55;1.92;;;7.30;93.70;;;;;;5032197;28;20033;-83
2021/03/27 06:17:43;;;;;;;7.97;1.70;;;7.10;93.30;;;;;;5033409;28;20063;-83
2021/03/27 06:20:40;;;;;;;17.10;5.40;;;7.00;92.70;;;;;;5033045;28;20028;-83
2021/03/27 06:23:37;;;;;;;13.38;3.28;;;7.00;92.70;;;;;;5031555;28;20490;-85
2021/03/27 06:26:45;;;;;;;8.38;1.83;;;6.90;92.80;;;;;;5032245;28;20017;-83
2021/03/27 06:29:50;;;;;;;6.07;1.67;;;6.90;93.00;;;;;;4984513;28;20068;-82
2021/03/27 06:32:43;;;;;;;5.40;1.67;;;6.80;92.30;;;;;;5034493;28;20485;-83
2021/03/27 06:35:27;;;;;;;6.72;1.50;;;6.70;92.60;;;;;;5050189;28;20080;-95
2021/03/27 06:38:02;;;;;;;8.85;1.70;;;6.60;92.70;;;;;;5040314;28;20016;-84
2021/03/27 06:40:52;;;;;;;8.48;2.50;;;6.50;92.60;;;;;;5026115;28;20487;-83
2021/03/27 06:43:37;;;;;;;9.23;2.28;;;6.40;92.60;;;;;;5045166;28;20024;-91
2021/03/27 06:46:11;;;;;;;4.97;1.45;;;6.40;92.70;;;;;;5039076;28;20010;-89
2021/03/27 06:49:12;;;;;;;9.05;2.40;;;6.30;92.80;;;;;;5022641;28;20029;-83
2021/03/27 06:51:54;;;;;;;5.72;1.48;;;6.30;93.00;;;;;;5005968;28;20036;-83
2021/03/27 06:54:36;;;;;;;11.30;1.85;;;6.30;93.10;;;;;;5014245;28;20033;-83
2021/03/27 06:57:06;;;;;;;9.63;2.05;;;6.30;93.10;;;;;;5031342;28;20029;-83
2021/03/27 06:59:52;;;;;;;9.48;1.77;;;6.30;93.20;;;;;;5032005;28;20029;-83
2021/03/27 07:02:26;;;;;;;8.80;2.10;;;6.30;93.10;;;;;;5032226;28;20029;-83
2021/03/27 07:05:11;;;;;;;9.13;1.63;;;6.20;93.10;;;;;;5031154;28;20025;-83
2021/03/27 07:07:56;;;;;;;11.50;2.40;;;6.20;92.90;;;;;;5031524;28;20053;-83
2021/03/27 07:11:09;;;;;;;8.35;1.98;;;6.20;92.90;;;;;;5013499;28;20022;-83
2021/03/27 07:14:02;;;;;;;7.15;2.38;;;6.10;93.20;;;;;;4954872;28;20076;-83
2021/03/27 07:16:34;;;;;;;10.13;2.10;;;6.10;93.50;;;;;;5014453;28;20500;-83
2021/03/27 07:19:21;;;;;;;7.95;2.03;;;6.20;93.70;;;;;;5032244;28;20037;-82
2021/03/27 07:22:04;;;;;;;11.45;2.05;;;6.20;93.90;;;;;;5022909;28;20037;-83
2021/03/27 07:24:43;;;;;;;10.27;2.30;;;6.20;94.10;;;;;;5018219;28;20068;-83
2021/03/27 07:28:03;;;;;;;8.07;1.95;;;6.30;94.20;;;;;;5018934;28;20072;-82
2021/03/27 07:30:44;;;;;;;6.05;1.98;;;6.40;94.20;;;;;;5015160;28;20065;-83
2021/03/27 07:33:48;;;;;;;12.23;3.08;;;6.50;94.10;;;;;;4998524;28;20441;-84
2021/03/27 07:36:51;;;;;;;12.02;2.10;;;6.60;94.00;;;;;;5016113;28;20052;-85
2021/03/27 07:39:37;;;;;;;9.45;2.08;;;6.60;94.00;;;;;;5003969;28;20125;-83
2021/03/27 07:42:37;;;;;;;21.60;3.33;;;6.70;93.70;;;;;;5015648;28;20475;-83
2021/03/27 07:45:05;;;;;;;7.55;2.30;;;6.80;93.70;;;;;;5016133;28;20041;-82
2021/03/27 07:47:43;;;;;;;15.55;2.45;;;6.80;93.70;;;;;;5014378;28;20058;-84
2021/03/27 07:50:56;;;;;;;11.75;1.77;;;6.90;93.70;;;;;;4998144;28;20031;-83
2021/03/27 07:53:58;;;;;;;11.10;1.80;;;6.90;93.30;;;;;;4915682;29;20389;-82
2021/03/27 07:56:45;;;;;;;11.32;2.28;;;7.00;93.30;;;;;;4914454;29;20481;-83
2021/03/27 07:59:25;;;;;;;15.10;2.40;;;7.10;93.40;;;;;;5005251;28;20030;-83
2021/03/27 08:02:03;;;;;;;10.13;2.08;;;7.10;93.50;;;;;;4995919;28;20109;-83
2021/03/27 08:05:01;;;;;;;11.32;2.15;;;7.20;93.20;;;;;;5013497;28;20053;-83
2021/03/27 08:08:07;;;;;;;10.77;1.88;;;7.20;93.10;;;;;;4996951;28;20446;-84
2021/03/27 08:10:47;;;;;;;8.55;2.13;;;7.20;92.90;;;;;;5014981;28;20056;-83
2021/03/27 08:13:26;;;;;;;13.80;2.45;;;7.20;92.70;;;;;;5013097;28;20117;-83
2021/03/27 08:16:33;;;;;;;11.00;2.55;;;7.20;92.70;;;;;;5009946;28;20140;-83
2021/03/27 08:19:20;;;;;;;9.13;1.90;;;7.20;92.60;;;;;;5003659;28;20038;-84
2021/03/27 08:22:06;;;;;;;12.82;3.45;;;7.20;92.60;;;;;;5013788;28;20028;-83
2021/03/27 08:24:46;;;;;;;11.77;2.00;;;7.20;92.30;;;;;;4997874;28;20025;-84
2021/03/27 08:27:31;;;;;;;18.15;2.78;;;7.10;92.30;;;;;;5015310;28;20057;-83
2021/03/27 08:30:02;;;;;;;10.05;1.80;;;7.10;92.50;;;;;;5023194;28;20033;-82
2021/03/27 08:32:34;;;;;;;12.25;2.70;;;7.00;90.50;;;;;;5022239;28;20022;-83
2021/03/27 08:35:24;;;;;;;9.63;2.30;;;6.90;90.80;;;;;;4997483;28;20037;-83
2021/03/27 08:38:01;;;;;;;6.40;2.10;;;6.70;90.20;;;;;;5014880;28;20052;-83
2021/03/27 08:40:45;;;;;;;8.88;1.98;;;6.50;90.50;;;;;;5013535;28;20524;-83
2021/03/27 08:43:39;;;;;;;8.07;1.90;;;6.30;90.40;;;;;;4996912;28;20042;-83
2021/03/27 08:46:42;;;;;;;7.15;1.63;;;6.30;90.50;;;;;;5003893;28;20050;-84
2021/03/27 08:49:46;;;;;;;9.93;1.83;;;6.20;90.70;;;;;;5002157;28;20014;-84
2021/03/27 08:52:42;;;;;;;8.77;1.80;;;6.20;91.10;;;;;;4996620;28;20022;-82
2021/03/27 08:55:31;;;;;;;7.80;1.40;;;6.30;91.60;;;;;;5014505;28;20034;-83
2021/03/27 08:58:02;;;;;;;6.95;1.65;;;6.30;92.10;;;;;;5003623;28;20501;-83
2021/03/27 09:01:02;;;;;;;8.77;1.85;;;6.30;92.00;;;;;;4995198;28;20037;-86
2021/03/27 09:03:41;;;;;;;10.68;1.55;;;6.30;92.00;;;;;;5011781;28;20164;-84
2021/03/27 09:06:37;;;;;;;10.38;2.33;;;6.40;92.20;;;;;;4993725;28;20034;-83
2021/03/27 09:09:22;;;;;;;8.88;1.33;;;6.60;92.20;;;;;;4992522;28;20030;-83
2021/03/27 09:12:12;;;;;;;8.60;1.50;;;6.70;91.80;;;;;;4991789;28;20113;-85
2021/03/27 09:14:56;;;;;;;7.82;1.70;;;6.80;91.50;;;;;;5012895;28;20532;-84
2021/03/27 09:17:40;;;;;;;12.73;2.22;;;6.60;91.20;;;;;;5013936;28;20048;-89
2021/03/27 09:20:28;;;;;;;6.68;1.60;;;6.70;91.60;;;;;;5026484;28;20040;-81
2021/03/27 09:23:00;;;;;;;13.95;3.17;;;6.70;92.10;;;;;;5032646;28;20033;-82
2021/03/27 09:26:03;;;;;;;15.43;2.88;;;6.80;92.70;;;;;;5031863;28;20041;-83
2021/03/27 09:28:59;;;;;;;14.18;2.08;;;6.90;93.00;;;;;;5032389;28;20052;-83
2021/03/27 09:31:44;;;;;;;10.82;2.38;;;7.00;92.30;;;;;;5031829;28;20167;-81
2021/03/27 09:34:54;;;;;;;16.58;2.92;;;7.10;91.00;;;;;;5032409;28;20045;-82
2021/03/27 09:37:44;;;;;;;11.07;3.00;;;7.20;91.50;;;;;;5006869;28;20033;-83
2021/03/27 09:40:33;;;;;;;17.23;2.97;;;7.40;91.50;;;;;;5034500;28;20548;-83
2021/03/27 09:43:17;;;;;;;17.40;3.92;;;7.50;90.80;;;;;;5016634;28;20412;-83
2021/03/27 09:45:56;;;;;;;19.67;3.15;;;7.60;91.40;;;;;;5018679;28;20075;-85
2021/03/27 09:48:34;;;;;;;17.38;3.13;;;7.70;91.10;;;;;;5015906;28;20120;-89
2021/03/27 09:51:09;;;;;;;12.95;2.15;;;7.80;90.80;;;;;;5016013;28;20025;-83
2021/03/27 09:54:02;;;;;;;20.08;2.95;;;8.00;91.20;;;;;;5050066;28;20021;-82
2021/03/27 09:56:46;;;;;;;7.00;1.52;;;8.20;90.10;;;;;;5016492;28;20021;-82
2021/03/27 09:59:33;;;;;;;11.02;2.83;;;8.30;85.80;;;;;;5032470;28;20029;-84
2021/03/27 10:02:56;;;;;;;10.48;2.33;;;8.30;82.30;;;;;;5032210;28;20168;-84
2021/03/27 10:05:38;;;;;;;10.05;1.58;;;8.30;82.80;;;;;;4947980;29;20499;-83
2021/03/27 10:08:10;;;;;;;8.95;2.00;;;8.30;82.70;;;;;;4954168;29;20047;-83
2021/03/27 10:10:59;;;;;;;6.53;1.70;;;8.40;83.00;;;;;;4999403;28;20037;-87
2021/03/27 10:13:55;;;;;;;11.00;2.10;;;8.60;82.30;;;;;;5032619;28;20113;-82
2021/03/27 10:16:49;;;;;;;8.23;2.05;;;8.70;77.80;;;;;;5062376;28;20096;-90
2021/03/27 10:19:18;;;;;;;8.65;1.60;;;8.90;80.50;;;;;;5071584;28;20009;-84
2021/03/27 10:21:50;;;;;;;10.75;2.50;;;9.00;77.30;;;;;;5072655;28;20141;-90
2021/03/27 10:24:34;;;;;;;10.02;2.63;;;9.10;79.10;;;;;;5056741;28;20037;-86
2021/03/27 10:27:23;;;;;;;8.85;2.00;;;9.30;75.70;;;;;;5037184;28;20488;-88
2021/03/27 10:30:03;;;;;;;4.10;1.33;;;9.50;73.40;;;;;;5036132;28;20021;-86
2021/03/27 10:32:31;;;;;;;7.43;1.52;;;9.50;68.60;;;;;;5048342;28;20030;-90
2021/03/27 10:35:40;;;;;;;7.43;1.17;;;9.60;69.10;;;;;;5016737;28;20116;-83
2021/03/27 10:38:44;;;;;;;8.38;1.77;;;9.70;69.80;;;;;;4931566;29;20035;-84
2021/03/27 10:41:15;;;;;;;5.20;1.40;;;9.80;69.70;;;;;;4931487;29;20812;-83
2021/03/27 10:43:54;;;;;;;5.72;1.80;;;9.90;67.40;;;;;;5007095;28;20048;-82
2021/03/27 10:46:31;;;;;;;5.95;1.40;;;10.00;68.80;;;;;;5028781;28;20018;-84
2021/03/27 10:49:53;;;;;;;9.13;1.98;;;10.10;68.70;;;;;;5028693;28;20025;-84
2021/03/27 10:52:56;;;;;;;7.57;2.33;;;10.30;66.90;;;;;;4931882;29;20079;-83
2021/03/27 10:55:36;;;;;;;6.30;2.03;;;10.30;61.90;;;;;;4933864;29;20039;-87
2021/03/27 10:58:17;;;;;;;7.03;1.40;;;10.40;62.80;;;;;;5009966;28;20485;-84
2021/03/27 11:00:52;;;;;;;6.45;2.22;;;10.40;60.20;;;;;;5014463;28;20028;-85
2021/03/27 11:03:55;;;;;;;8.85;1.65;;;10.50;59.80;;;;;;5015196;28;20151;-91
2021/03/27 11:06:42;;;;;;;6.03;1.50;;;10.50;62.00;;;;;;5029657;28;20124;-84
2021/03/27 11:09:28;;;;;;;5.93;1.73;;;10.60;62.80;;;;;;5016893;28;20819;-82
2021/03/27 11:12:11;;;;;;;6.18;1.77;;;10.80;64.60;;;;;;5039540;28;20028;-83
2021/03/27 11:14:56;;;;;;;9.20;1.90;;;10.90;63.60;;;;;;5035059;28;20025;-83
2021/03/27 11:17:53;;;;;;;7.45;1.70;;;11.10;62.90;;;;;;5018976;28;20025;-83
2021/03/27 11:20:47;;;;;;;10.40;2.45;;;11.20;59.70;;;;;;5032556;28;20076;-83
2021/03/27 11:23:42;;;;;;;8.07;1.90;;;11.30;61.10;;;;;;5010713;28;20107;-83
2021/03/27 11:26:25;;;;;;;8.98;2.67;;;11.40;60.70;;;;;;5033662;28;20457;-85
2021/03/27 11:29:01;;;;;;;7.60;2.00;;;11.50;61.60;;;;;;5017850;28;20036;-84
2021/03/27 11:31:33;;;;;;;10.00;1.67;;;11.60;59.90;;;;;;5032286;28;20049;-84
2021/03/27 11:33:58;;;;;;;7.10;1.73;;;11.70;62.70;;;;;;5032116;28;20108;-85
2021/03/27 11:36:42;;;;;;;8.57;1.83;;;11.80;62.40;;;;;;5033991;28;20581;-83
2021/03/27 11:39:38;;;;;;;9.90;1.65;;;12.00;61.50;;;;;;5016516;28;20028;-84
2021/03/27 11:42:52;;;;;;;9.45;2.00;;;12.00;59.70;;;;;;5030826;28;20025;-82
2021/03/27 11:45:32;;;;;;;8.90;1.80;;;12.00;58.60;;;;;;5016850;28;20402;-82
2021/03/27 11:48:21;;;;;;;7.13;1.95;;;11.90;58.20;;;;;;5034866;28;20049;-81
2021/03/27 11:51:02;;;;;;;6.22;1.67;;;11.90;57.00;;;;;;5015459;28;20054;-82
2021/03/27 11:53:43;;;;;;;;;;;11.80;57.30;;;;;;5021281;28;20469;-84
2021/03/27 11:56:46;;;;;;;7.93;2.25;;;11.80;59.00;;;;;;5033904;28;19916;-84
2021/03/27 12:02:27;;;;;;;8.07;1.40;;;11.80;60.70;;;;;;5027759;28;20084;-83
2021/03/27 12:05:24;;;;;;;4.97;1.52;;;11.80;60.30;;;;;;5024176;28;20037;-90
2021/03/27 12:07:49;;;;;;;7.72;2.28;;;11.80;61.70;;;;;;5026741;28;20017;-86
2021/03/27 12:10:28;;;;;;;9.98;1.92;;;11.80;58.60;;;;;;5042920;28;20367;-86
2021/03/27 12:13:13;;;;;;;8.25;1.80;;;11.80;59.70;;;;;;5042348;28;20497;-85
2021/03/27 12:16:10;;;;;;;9.35;1.70;;;11.90;57.40;;;;;;5031196;28;20076;-89
2021/03/27 12:19:09;;;;;;;7.00;1.77;;;11.80;56.50;;;;;;5035257;28;20092;-81
2021/03/27 12:21:45;;;;;;;11.32;2.15;;;11.70;56.70;;;;;;5019235;28;20025;-87
2021/03/27 12:24:29;;;;;;;9.80;2.40;;;11.70;57.30;;;;;;5033722;28;20033;-83
2021/03/27 12:27:18;;;;;;;9.10;2.10;;;11.70;58.50;;;;;;5020323;28;20025;-80
2021/03/27 12:29:48;;;;;;;7.13;1.90;;;11.70;60.10;;;;;;5029348;28;20140;-81
2021/03/27 12:32:49;;;;;;;9.50;1.92;;;11.70;61.00;;;;;;5043151;28;20095;-80
2021/03/27 12:35:30;;;;;;;12.23;2.00;;;11.80;61.10;;;;;;5046481;28;20120;-79
2021/03/27 12:38:07;;;;;;;;;;;11.80;61.20;;;;;;5053468;28;20078;-81
2021/03/27 12:40:54;;;;;;;9.40;1.90;;;11.80;60.40;;;;;;5036618;28;19905;-81
2021/03/27 12:43:22;;;;;;;7.35;2.10;;;11.80;63.50;;;;;;5050608;28;20029;-84
2021/03/27 12:46:35;;;;;;;11.55;2.33;;;11.80;66.10;;;;;;5015760;28;20362;-83
2021/03/27 12:49:19;;;;;;;6.25;1.95;;;12.00;67.80;;;;;;5021564;28;20131;-83
2021/03/27 12:52:08;;;;;;;11.75;2.17;;;12.10;66.10;;;;;;5018728;28;20030;-84
2021/03/27 12:54:49;;;;;;;13.90;1.98;;;12.20;62.40;;;;;;5041772;28;20161;-84
2021/03/27 12:57:43;;;;;;;9.57;1.95;;;12.30;62.10;;;;;;5035152;28;20033;-85
2021/03/27 13:00:43;;;;;;;8.75;2.38;;;12.30;57.20;;;;;;5052979;28;20017;-83
2021/03/27 13:03:36;;;;;;;11.60;2.70;;;12.20;59.50;;;;;;5044674;28;20875;-84
2021/03/27 13:06:28;;;;;;;9.55;2.33;;;12.30;59.40;;;;;;5002967;28;20030;-85
2021/03/27 13:09:32;;;;;;;8.63;1.70;;;12.20;64.10;;;;;;5029404;28;20036;-84
2021/03/27 13:12:11;;;;;;;9.23;2.42;;;12.20;68.20;;;;;;5045671;28;20078;-84
2021/03/27 13:14:58;;;;;;;9.73;2.35;;;12.20;68.20;;;;;;5043673;28;20029;-93
2021/03/27 13:17:59;;;;;;;;;;;;;;;;;;;;;
2021/03/27 13:20:50;;;;;;;10.70;2.38;;;12.10;70.70;;;;;;5032930;28;20026;-83
2021/03/27 13:23:28;;;;;;;8.65;2.40;;;12.20;72.40;;;;;;5015309;28;20027;-81
2021/03/27 13:25:55;;;;;;;15.27;2.97;;;12.30;71.40;;;;;;5015361;28;20390;-84
2021/03/27 13:28:43;;;;;;;10.82;2.17;;;12.40;69.00;;;;;;5016298;28;20108;-83
2021/03/27 13:31:16;;;;;;;8.43;2.20;;;12.30;66.10;;;;;;5015918;28;20104;-84
2021/03/27 13:34:11;;;;;;;14.50;2.78;;;12.40;65.80;;;;;;5015491;28;20026;-83
2021/03/27 13:37:02;;;;;;;12.88;2.30;;;12.60;65.60;;;;;;5028196;28;20106;-84
2021/03/27 13:39:39;;;;;;;11.60;2.40;;;12.70;63.30;;;;;;5025166;28;20032;-87
2021/03/27 13:42:39;;;;;;;8.25;1.60;;;12.80;59.80;;;;;;5033340;28;20432;-84
2021/03/27 13:45:09;;;;;;;9.13;2.00;;;13.10;60.80;;;;;;5029424;28;20025;-84
2021/03/27 13:48:24;;;;;;;10.07;2.35;;;13.30;57.80;;;;;;5015304;28;20530;-82
2021/03/27 13:51:11;;;;;;;9.02;2.22;;;13.50;57.90;;;;;;5026369;28;20051;-82
2021/03/27 13:53:48;;;;;;;11.95;1.80;;;13.40;54.50;;;;;;5015315;28;20029;-82
2021/03/27 13:56:32;;;;;;;9.32;2.10;;;13.30;55.40;;;;;;5035959;28;20040;-84
2021/03/27 13:59:16;;;;;;;8.70;2.22;;;13.20;57.60;;;;;;5023777;28;20033;-84
2021/03/27 14:02:09;;;;;;;9.10;1.90;;;13.20;56.50;;;;;;5046550;28;20029;-85
2021/03/27 14:04:41;;;;;;;11.27;2.05;;;13.20;57.30;;;;;;5055037;28;20049;-86
2021/03/27 14:07:29;;;;;;;10.00;2.30;;;13.10;56.60;;;;;;5054857;28;20018;-89
2021/03/27 14:10:01;;;;;;;7.57;2.08;;;13.10;55.80;;;;;;5043680;28;20045;-88
2021/03/27 14:12:37;;;;;;;10.02;2.88;;;13.10;55.50;;;;;;5056197;28;20063;-86
2021/03/27 14:15:05;;;;;;;8.90;2.35;;;13.20;53.90;;;;;;5057432;28;20052;-87
2021/03/27 14:18:00;;;;;;;12.20;2.47;;;13.20;54.00;;;;;;5056114;28;20080;-87
2021/03/27 14:20:57;;;;;;;10.15;1.95;;;13.30;53.20;;;;;;5037411;28;20064;-86
2021/03/27 14:23:22;;;;;;;9.00;1.85;;;13.50;54.70;;;;;;5015571;28;20036;-87
2021/03/27 14:26:00;;;;;;;11.45;2.42;;;13.70;54.90;;;;;;5017394;28;20113;-83